CDT,Max TemperatureF,Mean TemperatureF,Min TemperatureF,Max Dew PointF,MeanDew PointF,Min DewpointF,Max Humidity, Mean Humidity, Min Humidity, Max Sea Level PressureIn, Mean Sea Level PressureIn, Min Sea Level PressureIn, Max VisibilityMiles, Mean VisibilityMiles, Min VisibilityMiles, Max Wind SpeedMPH, Mean Wind SpeedMPH, Max Gust SpeedMPH,PrecipitationIn, CloudCover, Events, WindDirDegrees
2013-7-1,71,66,60,57,54,50,77,66,50,30.30,30.23,30.14,10,10,10,24,11,29,0.00,4,,35
2013-7-2,80,66,51,54,48,46,88,54,32,30.33,30.27,30.19,10,10,10,15,6,20,0.00,2,,61
2013-7-3,82,71,60,48,46,39,59,42,30,30.27,30.19,30.09,10,10,10,15,6,18,0.00,5,,119
2013-7-4,86,70,53,57,45,39,64,40,25,30.15,30.10,30.03,10,10,10,16,6,22,0.04,1,Thunderstorm,152
2013-7-5,91,73,55,54,49,46,77,43,22,30.14,30.08,29.99,10,10,10,16,5,20,0.00,1,,139
2013-7-6,93,76,60,54,50,46,63,41,23,30.11,30.06,29.98,10,10,10,20,6,25,0.00,1,,144
2013-7-7,71,68,66,48,48,46,52,48,43,30.09,30.08,30.07,10,10,10,9,6,,0.00,0,,127
2013-7-8,,,,,,,,,,,,,,,,,,,,,,
2013-7-9,87,80,73,59,57,55,57,44,35,30.27,30.21,30.17,10,10,10,20,10,25,0.00,5,,140
2013-7-10,89,76,62,61,57,52,78,53,29,30.29,30.23,30.14,10,10,10,16,7,21,0.00,1,,138
2013-7-11,89,76,62,61,56,52,73,54,29,30.23,30.18,30.09,10,10,7,24,6,36,0.30,2,Thunderstorm,96
2013-7-12,91,74,57,61,55,48,94,55,24,30.18,30.13,30.06,10,10,8,20,6,24,0.00,1,,71
2013-7-13,89,73,57,54,50,46,82,43,24,30.22,30.16,30.10,10,10,10,17,7,30,0.00,1,,94
2013-7-14,91,75,59,52,45,37,63,35,18,30.18,30.12,30.01,10,10,8,13,5,20,0.00,0,,78
2013-7-15,73,66,59,59,54,41,88,69,35,30.21,30.12,30.03,10,10,10,26,12,31,0.00,6,,28
2013-7-16,69,64,60,59,55,54,88,76,60,30.29,30.23,30.18,10,10,6,18,10,22,0.06,7,,30
2013-7-17,73,66,60,63,61,57,100,85,65,30.33,30.29,30.26,10,10,5,17,9,24,0.45,7,,64
2013-7-18,73,68,62,63,61,59,94,82,65,30.31,30.26,30.20,10,10,8,20,9,22,0.00,7,,81
2013-7-19,77,70,62,64,62,59,94,83,54,30.24,30.20,30.13,10,10,10,17,6,21,0.09,5,Thunderstorm,65
2013-7-20,75,68,60,64,61,55,100,81,60,30.18,30.14,30.07,10,10,3,17,4,20,0.42,5,Thunderstorm,132
2013-7-21,78,70,62,64,61,59,94,78,54,30.15,30.11,30.05,10,10,8,18,5,21,0.02,5,,144
2013-7-22,82,71,60,64,62,57,100,76,45,30.17,30.13,30.09,10,10,10,16,5,22,0.09,2,,163
2013-7-23,84,73,62,64,62,57,100,73,40,30.18,30.15,30.08,10,10,10,13,5,18,0.00,2,Thunderstorm,173
2013-7-24,86,74,62,64,61,55,94,70,37,30.20,30.16,30.12,10,10,10,22,4,28,0.00,1,Thunderstorm,28
2013-7-25,89,74,60,61,56,48,94,58,25,30.28,30.22,30.18,10,10,10,13,7,17,0.00,0,,25
2013-7-26,87,74,60,64,59,55,88,69,40,30.29,30.25,30.21,10,10,8,29,5,32,0.04,1,Thunderstorm,354
2013-7-27,82,74,66,63,60,54,88,66,39,30.30,30.23,30.15,10,10,10,16,8,22,0.00,3,,38
2013-7-28,84,72,60,66,62,57,100,77,42,30.21,30.13,30.06,10,10,8,18,6,28,0.50,3,Thunderstorm,178
2013-7-29,82,73,64,66,63,61,100,80,51,30.25,30.18,30.13,10,10,7,15,5,34,0.06,3,Thunderstorm,196
2013-7-30,86,75,64,66,64,61,100,78,45,30.31,30.27,30.22,10,10,10,10,3,,0.04,1,Thunderstorm,294
2013-7-31,89,76,62,64,61,54,94,62,31,30.33,30.27,30.21,10,10,10,16,5,21,0.00,0,Thunderstorm,50